KCOD

Yellowstone Regional Airport

Cody, Wyoming, USA
METAR KCOD 180256Z AUTO 31007KT 10SM CLR 01/M08 A2990 RMK AO2 SLP157 T00061083 52007 FZRANO
Observed Flight Rules
Dec-18 @ 02:56 UTC (18 minutes ago) Visual Flight Rules
Wind Visibility Clouds
310° at 7 knots 10 miles
  • Clear skies
Temperatures Readings
Current 1°C / 34°F
Dewpoint -8°C / 18°F
Humidity 51%
Altimeter 29.9" Hg
Pressure 1015.7 hPa
Elevation 1553
METAR KCOD 180256Z AUTO 31007KT 10SM CLR 01/M08 A2990 RMK AO2 SLP157 T00061083 52007 FZRANO
Observed Flight Rules
Dec-18 @ 02:56 UTC
(18 minutes ago)
VFR
Wind Visibility
310° at 7 knots 10 miles
Clouds
  • Clear skies
Temperature Dewpoint
1°C / 34°F -8°C / 18°F
Humidity Altimeter Pressure
51% 29.9" Hg 1015.7 hPa